CDT,Max TemperatureF,Mean TemperatureF,Min TemperatureF,Max Dew PointF,MeanDew PointF,Min DewpointF,Max Humidity, Mean Humidity, Min Humidity, Max Sea Level PressureIn, Mean Sea Level PressureIn, Min Sea Level PressureIn, Max VisibilityMiles, Mean VisibilityMiles, Min VisibilityMiles, Max Wind SpeedMPH, Mean Wind SpeedMPH, Max Gust SpeedMPH,PrecipitationIn, CloudCover, Events, WindDirDegrees
2013-9-1,91,81,72,74,70,67,90,73,46,29.97,29.89,29.86,10,8,4,15,4,21,0.00,2,,320
2013-9-2,82,76,69,74,70,66,94,85,67,30.00,29.91,29.86,10,8,0,31,7,39,0.66,4,Fog-Rain-Thunderstorm,225
2013-9-3,88,79,69,73,69,63,97,76,48,30.01,29.95,29.91,10,9,4,9,5,,0.00,2,,338
2013-9-4,88,75,64,67,64,61,96,74,43,30.12,30.07,30.00,10,9,5,6,2,,0.00,1,,7
2013-9-5,88,74,60,66,63,59,96,77,39,30.17,30.13,30.09,10,8,2,9,1,,0.01,0,,14
2013-9-6,89,74,60,69,64,59,100,77,46,30.15,30.11,30.05,10,9,2,6,2,,0.00,0,,149
2013-9-7,91,76,62,72,66,61,100,81,48,30.11,30.06,30.00,9,6,2,6,1,,0.00,1,,192
2013-9-8,91,78,64,72,66,63,100,84,45,30.04,30.00,29.94,9,4,0,9,1,,0.01,0,Fog,266
2013-9-9,91,80,70,73,70,67,94,74,52,30.08,30.04,29.99,10,6,2,12,2,,0.00,2,Thunderstorm,171
2013-9-10,90,80,72,72,71,69,93,78,55,30.18,30.14,30.08,9,7,4,8,3,,0.00,1,,118
2013-9-11,90,78,66,71,68,65,93,75,48,30.21,30.15,30.09,10,8,3,8,2,,0.00,0,,141
2013-9-12,91,78,64,70,67,63,97,76,42,30.09,30.02,29.92,10,6,1,23,4,33,0.69,2,Rain-Thunderstorm,281
2013-9-13,82,72,61,70,63,53,97,78,41,29.99,29.95,29.90,10,6,0,13,3,21,0.00,0,Fog,14
2013-9-14,79,65,52,60,54,50,93,72,42,30.06,30.02,29.98,10,10,10,7,5,,0.00,0,,19
2013-9-15,84,66,51,65,57,50,100,78,39,30.13,30.10,30.06,10,8,1,7,1,,0.01,0,,178
2013-9-16,88,71,54,66,58,53,97,71,37,30.17,30.12,30.09,10,8,2,8,1,,0.00,0,,34
2013-9-17,87,75,64,67,64,60,90,72,49,30.18,30.12,30.07,10,9,7,10,4,,0.00,0,,111
2013-9-18,82,72,64,67,64,61,90,75,60,30.20,30.14,30.08,10,10,8,10,6,,0.00,3,,131
2013-9-19,87,76,66,66,64,63,90,73,49,30.17,30.10,30.04,10,9,8,9,5,,0.00,2,,139
2013-9-20,87,74,62,70,65,60,93,74,49,30.04,29.95,29.84,10,8,5,12,4,16,0.09,1,Rain,158
2013-9-21,75,65,55,72,65,54,100,90,57,29.86,29.81,29.74,10,6,1,17,8,25,2.56,7,Rain,354
2013-9-22,78,65,52,57,53,50,93,71,43,29.91,29.88,29.85,10,10,7,13,5,23,0.01,0,,25
2013-9-23,82,66,50,62,56,48,100,78,48,29.99,29.95,29.90,10,9,0,8,2,,0.00,0,Fog,91
2013-9-24,73,66,60,67,64,59,94,87,78,29.99,29.93,29.85,10,8,3,9,4,,0.01,7,Rain,109
2013-9-25,80,70,62,68,65,62,100,86,64,29.89,29.84,29.80,10,6,2,6,3,,0.02,6,Rain,120
2013-9-26,82,73,64,65,63,60,97,80,49,30.01,29.95,29.87,10,8,5,6,3,,0.00,5,,110
2013-9-27,82,70,57,64,60,55,97,79,49,30.13,30.07,30.01,10,9,2,6,2,,0.00,1,,137
2013-9-28,79,68,57,59,57,55,93,74,48,30.21,30.13,30.08,10,10,7,13,4,17,0.01,0,,114
2013-9-29,75,66,57,61,57,54,93,76,55,30.13,30.07,30.01,10,10,10,10,5,,0.01,2,,131
2013-9-30,75,68,62,64,60,58,90,82,62,30.10,30.03,29.98,10,9,2,7,3,,0.14,7,Rain,127